sensor_id;sensor_type;location;lat;lon;timestamp;P1;durP1;ratioP1;P2;durP2;ratioP2
28968;SDS011;16076;51.194;6.642;2022-11-14T00:00:19;15.68;;;9.70;;
28968;SDS011;16076;51.194;6.642;2022-11-14T00:02:45;14.52;;;9.25;;
28968;SDS011;16076;51.194;6.642;2022-11-14T00:05:10;18.77;;;10.88;;
28968;SDS011;16076;51.194;6.642;2022-11-14T00:07:36;21.25;;;10.43;;
28968;SDS011;16076;51.194;6.642;2022-11-14T00:10:02;16.83;;;9.02;;
28968;SDS011;16076;51.194;6.642;2022-11-14T00:12:28;17.80;;;9.82;;
28968;SDS011;16076;51.194;6.642;2022-11-14T00:14:54;19.23;;;10.90;;
28968;SDS011;16076;51.194;6.642;2022-11-14T00:17:20;23.80;;;10.02;;
28968;SDS011;16076;51.194;6.642;2022-11-14T00:19:46;18.85;;;11.07;;
28968;SDS011;16076;51.194;6.642;2022-11-14T00:22:11;17.73;;;10.38;;
28968;SDS011;16076;51.194;6.642;2022-11-14T00:24:37;17.20;;;10.07;;
28968;SDS011;16076;51.194;6.642;2022-11-14T00:27:06;18.50;;;9.63;;
28968;SDS011;16076;51.194;6.642;2022-11-14T00:29:31;15.82;;;9.82;;
28968;SDS011;16076;51.194;6.642;2022-11-14T00:31:57;16.98;;;9.48;;
28968;SDS011;16076;51.194;6.642;2022-11-14T00:34:23;22.05;;;11.38;;
28968;SDS011;16076;51.194;6.642;2022-11-14T00:36:48;15.88;;;9.80;;
28968;SDS011;16076;51.194;6.642;2022-11-14T00:39:14;18.30;;;9.48;;
28968;SDS011;16076;51.194;6.642;2022-11-14T00:41:40;16.92;;;9.38;;
28968;SDS011;16076;51.194;6.642;2022-11-14T00:44:06;17.10;;;10.07;;
28968;SDS011;16076;51.194;6.642;2022-11-14T00:46:33;16.92;;;9.50;;
28968;SDS011;16076;51.194;6.642;2022-11-14T00:48:59;16.15;;;10.57;;
28968;SDS011;16076;51.194;6.642;2022-11-14T00:51:25;16.60;;;10.02;;
28968;SDS011;16076;51.194;6.642;2022-11-14T00:53:51;18.38;;;9.52;;
28968;SDS011;16076;51.194;6.642;2022-11-14T00:56:16;17.17;;;9.88;;
28968;SDS011;16076;51.194;6.642;2022-11-14T00:58:42;18.70;;;9.95;;
28968;SDS011;16076;51.194;6.642;2022-11-14T01:01:08;17.98;;;10.15;;
28968;SDS011;16076;51.194;6.642;2022-11-14T01:03:34;15.95;;;10.07;;
28968;SDS011;16076;51.194;6.642;2022-11-14T01:06:03;17.17;;;8.90;;
28968;SDS011;16076;51.194;6.642;2022-11-14T01:08:30;16.92;;;9.18;;
28968;SDS011;16076;51.194;6.642;2022-11-14T01:10:56;16.58;;;9.48;;
28968;SDS011;16076;51.194;6.642;2022-11-14T01:13:23;14.80;;;9.70;;
28968;SDS011;16076;51.194;6.642;2022-11-14T01:15:49;16.48;;;8.85;;
28968;SDS011;16076;51.194;6.642;2022-11-14T01:18:17;18.50;;;9.48;;
28968;SDS011;16076;51.194;6.642;2022-11-14T01:20:44;17.45;;;10.10;;
28968;SDS011;16076;51.194;6.642;2022-11-14T01:23:12;17.85;;;9.45;;
28968;SDS011;16076;51.194;6.642;2022-11-14T01:25:41;16.67;;;9.07;;
28968;SDS011;16076;51.194;6.642;2022-11-14T01:28:09;18.70;;;9.43;;
28968;SDS011;16076;51.194;6.642;2022-11-14T01:30:42;15.63;;;9.07;;
28968;SDS011;16076;51.194;6.642;2022-11-14T01:33:08;18.77;;;9.55;;
28968;SDS011;16076;51.194;6.642;2022-11-14T01:35:35;19.10;;;9.75;;
28968;SDS011;16076;51.194;6.642;2022-11-14T01:38:03;14.77;;;8.75;;
28968;SDS011;16076;51.194;6.642;2022-11-14T01:40:29;14.93;;;9.45;;
28968;SDS011;16076;51.194;6.642;2022-11-14T01:45:46;16.05;;;8.73;;
28968;SDS011;16076;51.194;6.642;2022-11-14T01:48:41;17.90;;;9.35;;
28968;SDS011;16076;51.194;6.642;2022-11-14T01:54:08;13.50;;;8.05;;
28968;SDS011;16076;51.194;6.642;2022-11-14T01:56:42;15.60;;;8.90;;
28968;SDS011;16076;51.194;6.642;2022-11-14T01:59:14;22.25;;;9.45;;
28968;SDS011;16076;51.194;6.642;2022-11-14T02:01:46;14.00;;;8.55;;
28968;SDS011;16076;51.194;6.642;2022-11-14T02:04:18;17.25;;;9.35;;
28968;SDS011;16076;51.194;6.642;2022-11-14T02:06:49;15.30;;;8.73;;
28968;SDS011;16076;51.194;6.642;2022-11-14T02:09:19;13.23;;;8.57;;
28968;SDS011;16076;51.194;6.642;2022-11-14T02:11:45;14.20;;;8.65;;
28968;SDS011;16076;51.194;6.642;2022-11-14T02:14:11;15.20;;;9.88;;
28968;SDS011;16076;51.194;6.642;2022-11-14T02:16:38;14.82;;;8.40;;
28968;SDS011;16076;51.194;6.642;2022-11-14T02:19:05;17.15;;;9.45;;
28968;SDS011;16076;51.194;6.642;2022-11-14T02:21:31;18.40;;;9.98;;
28968;SDS011;16076;51.194;6.642;2022-11-14T02:23:57;17.33;;;9.98;;
28968;SDS011;16076;51.194;6.642;2022-11-14T02:26:22;16.42;;;9.10;;
28968;SDS011;16076;51.194;6.642;2022-11-14T02:28:48;16.58;;;9.27;;
28968;SDS011;16076;51.194;6.642;2022-11-14T02:31:15;15.60;;;9.45;;
28968;SDS011;16076;51.194;6.642;2022-11-14T02:33:41;18.17;;;9.75;;
28968;SDS011;16076;51.194;6.642;2022-11-14T02:36:07;16.17;;;9.52;;
28968;SDS011;16076;51.194;6.642;2022-11-14T02:38:35;18.13;;;9.80;;
28968;SDS011;16076;51.194;6.642;2022-11-14T02:41:01;18.92;;;10.40;;
28968;SDS011;16076;51.194;6.642;2022-11-14T02:43:27;18.67;;;10.07;;
28968;SDS011;16076;51.194;6.642;2022-11-14T02:45:53;21.20;;;10.73;;
28968;SDS011;16076;51.194;6.642;2022-11-14T02:48:19;20.40;;;10.50;;
28968;SDS011;16076;51.194;6.642;2022-11-14T02:50:47;16.38;;;10.07;;
28968;SDS011;16076;51.194;6.642;2022-11-14T02:53:13;19.58;;;11.25;;
28968;SDS011;16076;51.194;6.642;2022-11-14T02:55:39;20.63;;;11.35;;
28968;SDS011;16076;51.194;6.642;2022-11-14T02:58:05;18.40;;;10.40;;
28968;SDS011;16076;51.194;6.642;2022-11-14T03:00:31;23.00;;;11.32;;
28968;SDS011;16076;51.194;6.642;2022-11-14T03:02:57;19.05;;;10.52;;
28968;SDS011;16076;51.194;6.642;2022-11-14T03:05:23;18.23;;;10.30;;
28968;SDS011;16076;51.194;6.642;2022-11-14T03:07:51;19.88;;;10.77;;
28968;SDS011;16076;51.194;6.642;2022-11-14T03:10:18;16.83;;;10.68;;
28968;SDS011;16076;51.194;6.642;2022-11-14T03:12:43;18.92;;;10.30;;
28968;SDS011;16076;51.194;6.642;2022-11-14T03:15:12;18.60;;;10.20;;
28968;SDS011;16076;51.194;6.642;2022-11-14T03:17:38;16.48;;;8.70;;
28968;SDS011;16076;51.194;6.642;2022-11-14T03:20:04;18.85;;;9.90;;
28968;SDS011;16076;51.194;6.642;2022-11-14T03:22:30;20.85;;;8.85;;
28968;SDS011;16076;51.194;6.642;2022-11-14T03:24:56;18.52;;;9.88;;
28968;SDS011;16076;51.194;6.642;2022-11-14T03:27:22;18.45;;;10.25;;
28968;SDS011;16076;51.194;6.642;2022-11-14T03:29:48;17.02;;;9.95;;
28968;SDS011;16076;51.194;6.642;2022-11-14T03:32:13;20.42;;;10.48;;
28968;SDS011;16076;51.194;6.642;2022-11-14T03:34:39;17.25;;;9.48;;
28968;SDS011;16076;51.194;6.642;2022-11-14T03:37:05;17.85;;;10.18;;
28968;SDS011;16076;51.194;6.642;2022-11-14T03:39:31;16.65;;;9.45;;
28968;SDS011;16076;51.194;6.642;2022-11-14T03:41:57;20.20;;;10.32;;
28968;SDS011;16076;51.194;6.642;2022-11-14T03:44:22;16.08;;;9.55;;
28968;SDS011;16076;51.194;6.642;2022-11-14T03:46:49;19.20;;;9.57;;
28968;SDS011;16076;51.194;6.642;2022-11-14T03:49:15;15.70;;;9.95;;
28968;SDS011;16076;51.194;6.642;2022-11-14T03:51:41;14.43;;;9.02;;
28968;SDS011;16076;51.194;6.642;2022-11-14T03:54:09;18.00;;;9.88;;
28968;SDS011;16076;51.194;6.642;2022-11-14T03:56:35;20.63;;;9.15;;
28968;SDS011;16076;51.194;6.642;2022-11-14T03:59:00;16.90;;;9.77;;
28968;SDS011;16076;51.194;6.642;2022-11-14T04:01:26;17.13;;;8.88;;
28968;SDS011;16076;51.194;6.642;2022-11-14T04:03:53;17.02;;;9.43;;
28968;SDS011;16076;51.194;6.642;2022-11-14T04:06:19;17.08;;;9.00;;
28968;SDS011;16076;51.194;6.642;2022-11-14T04:08:45;16.42;;;8.50;;
28968;SDS011;16076;51.194;6.642;2022-11-14T04:11:11;14.15;;;8.68;;
28968;SDS011;16076;51.194;6.642;2022-11-14T04:13:36;16.02;;;8.98;;
28968;SDS011;16076;51.194;6.642;2022-11-14T04:16:02;13.05;;;8.27;;
28968;SDS011;16076;51.194;6.642;2022-11-14T04:18:28;19.30;;;9.68;;
28968;SDS011;16076;51.194;6.642;2022-11-14T04:20:54;15.65;;;8.93;;
28968;SDS011;16076;51.194;6.642;2022-11-14T04:23:20;17.00;;;8.82;;
28968;SDS011;16076;51.194;6.642;2022-11-14T04:25:48;13.45;;;8.38;;
28968;SDS011;16076;51.194;6.642;2022-11-14T04:28:14;13.98;;;8.70;;
28968;SDS011;16076;51.194;6.642;2022-11-14T04:30:40;15.43;;;8.40;;
28968;SDS011;16076;51.194;6.642;2022-11-14T04:33:06;17.45;;;8.93;;
28968;SDS011;16076;51.194;6.642;2022-11-14T04:35:32;15.80;;;8.60;;
28968;SDS011;16076;51.194;6.642;2022-11-14T04:37:58;17.88;;;8.18;;
28968;SDS011;16076;51.194;6.642;2022-11-14T04:40:24;13.10;;;8.05;;
28968;SDS011;16076;51.194;6.642;2022-11-14T04:42:49;14.10;;;8.40;;
28968;SDS011;16076;51.194;6.642;2022-11-14T04:45:15;16.23;;;8.48;;
28968;SDS011;16076;51.194;6.642;2022-11-14T04:47:43;12.63;;;7.53;;
28968;SDS011;16076;51.194;6.642;2022-11-14T04:50:09;14.27;;;7.65;;
28968;SDS011;16076;51.194;6.642;2022-11-14T04:52:35;15.63;;;7.93;;
28968;SDS011;16076;51.194;6.642;2022-11-14T04:55:01;15.02;;;7.68;;
28968;SDS011;16076;51.194;6.642;2022-11-14T04:57:26;16.17;;;8.35;;
28968;SDS011;16076;51.194;6.642;2022-11-14T04:59:52;16.25;;;8.10;;
28968;SDS011;16076;51.194;6.642;2022-11-14T05:02:18;11.80;;;7.70;;
28968;SDS011;16076;51.194;6.642;2022-11-14T05:04:44;19.08;;;8.55;;
28968;SDS011;16076;51.194;6.642;2022-11-14T05:07:11;15.10;;;7.38;;
28968;SDS011;16076;51.194;6.642;2022-11-14T05:09:37;16.25;;;8.02;;
28968;SDS011;16076;51.194;6.642;2022-11-14T05:12:03;12.73;;;7.72;;
28968;SDS011;16076;51.194;6.642;2022-11-14T05:14:29;17.42;;;8.80;;
28968;SDS011;16076;51.194;6.642;2022-11-14T05:16:55;14.80;;;8.00;;
28968;SDS011;16076;51.194;6.642;2022-11-14T05:19:21;14.90;;;8.00;;
28968;SDS011;16076;51.194;6.642;2022-11-14T05:21:47;15.65;;;8.27;;
28968;SDS011;16076;51.194;6.642;2022-11-14T05:24:13;15.88;;;8.15;;
28968;SDS011;16076;51.194;6.642;2022-11-14T05:26:39;13.63;;;8.23;;
28968;SDS011;16076;51.194;6.642;2022-11-14T05:29:05;17.48;;;8.05;;
28968;SDS011;16076;51.194;6.642;2022-11-14T05:31:31;15.77;;;8.15;;
28968;SDS011;16076;51.194;6.642;2022-11-14T05:33:56;13.40;;;7.18;;
28968;SDS011;16076;51.194;6.642;2022-11-14T05:36:22;13.77;;;7.88;;
28968;SDS011;16076;51.194;6.642;2022-11-14T05:38:48;15.68;;;8.23;;
28968;SDS011;16076;51.194;6.642;2022-11-14T05:41:15;12.38;;;8.00;;
28968;SDS011;16076;51.194;6.642;2022-11-14T05:43:44;12.93;;;7.10;;
28968;SDS011;16076;51.194;6.642;2022-11-14T05:46:10;12.68;;;7.60;;
28968;SDS011;16076;51.194;6.642;2022-11-14T05:48:37;15.52;;;8.55;;
28968;SDS011;16076;51.194;6.642;2022-11-14T05:51:04;13.52;;;7.45;;
28968;SDS011;16076;51.194;6.642;2022-11-14T05:53:31;13.40;;;7.95;;
28968;SDS011;16076;51.194;6.642;2022-11-14T05:56:01;15.13;;;8.90;;
28968;SDS011;16076;51.194;6.642;2022-11-14T05:58:30;13.55;;;7.97;;
28968;SDS011;16076;51.194;6.642;2022-11-14T06:01:00;17.02;;;8.73;;
28968;SDS011;16076;51.194;6.642;2022-11-14T06:03:32;14.60;;;7.68;;
28968;SDS011;16076;51.194;6.642;2022-11-14T06:05:59;12.38;;;8.10;;
28968;SDS011;16076;51.194;6.642;2022-11-14T06:08:29;14.65;;;8.50;;
28968;SDS011;16076;51.194;6.642;2022-11-14T06:10:55;20.50;;;8.55;;
28968;SDS011;16076;51.194;6.642;2022-11-14T06:13:25;14.45;;;9.10;;
28968;SDS011;16076;51.194;6.642;2022-11-14T06:15:51;11.18;;;7.28;;
28968;SDS011;16076;51.194;6.642;2022-11-14T06:18:16;13.25;;;7.40;;
28968;SDS011;16076;51.194;6.642;2022-11-14T06:20:42;11.73;;;7.25;;
28968;SDS011;16076;51.194;6.642;2022-11-14T06:23:08;11.07;;;7.05;;
28968;SDS011;16076;51.194;6.642;2022-11-14T06:25:34;12.10;;;7.45;;
28968;SDS011;16076;51.194;6.642;2022-11-14T06:27:59;13.00;;;7.45;;
28968;SDS011;16076;51.194;6.642;2022-11-14T06:30:25;10.52;;;7.13;;
28968;SDS011;16076;51.194;6.642;2022-11-14T06:32:55;13.25;;;7.13;;
28968;SDS011;16076;51.194;6.642;2022-11-14T06:35:23;12.93;;;7.13;;
28968;SDS011;16076;51.194;6.642;2022-11-14T06:37:51;13.05;;;7.05;;
28968;SDS011;16076;51.194;6.642;2022-11-14T06:40:19;14.00;;;7.43;;
28968;SDS011;16076;51.194;6.642;2022-11-14T06:42:45;15.55;;;8.23;;
28968;SDS011;16076;51.194;6.642;2022-11-14T06:45:10;13.57;;;8.00;;
28968;SDS011;16076;51.194;6.642;2022-11-14T06:47:36;21.25;;;8.55;;
28968;SDS011;16076;51.194;6.642;2022-11-14T06:50:02;20.92;;;8.93;;
28968;SDS011;16076;51.194;6.642;2022-11-14T06:52:28;20.63;;;9.52;;
28968;SDS011;16076;51.194;6.642;2022-11-14T06:54:55;17.35;;;9.13;;
28968;SDS011;16076;51.194;6.642;2022-11-14T06:57:20;19.73;;;9.82;;
28968;SDS011;16076;51.194;6.642;2022-11-14T06:59:46;14.50;;;8.98;;
28968;SDS011;16076;51.194;6.642;2022-11-14T07:02:14;16.88;;;8.93;;
28968;SDS011;16076;51.194;6.642;2022-11-14T07:04:42;15.80;;;9.27;;
28968;SDS011;16076;51.194;6.642;2022-11-14T07:07:08;21.35;;;9.55;;
28968;SDS011;16076;51.194;6.642;2022-11-14T07:09:34;15.10;;;8.93;;
28968;SDS011;16076;51.194;6.642;2022-11-14T07:11:59;14.85;;;8.20;;
28968;SDS011;16076;51.194;6.642;2022-11-14T07:14:25;17.13;;;9.48;;
28968;SDS011;16076;51.194;6.642;2022-11-14T07:16:52;15.75;;;9.60;;
28968;SDS011;16076;51.194;6.642;2022-11-14T07:19:18;19.00;;;9.70;;
28968;SDS011;16076;51.194;6.642;2022-11-14T07:21:44;17.58;;;9.88;;
28968;SDS011;16076;51.194;6.642;2022-11-14T07:24:09;20.15;;;9.82;;
28968;SDS011;16076;51.194;6.642;2022-11-14T07:26:36;16.58;;;9.88;;
28968;SDS011;16076;51.194;6.642;2022-11-14T07:29:02;15.30;;;9.05;;
28968;SDS011;16076;51.194;6.642;2022-11-14T07:31:27;18.70;;;10.32;;
28968;SDS011;16076;51.194;6.642;2022-11-14T07:33:53;16.33;;;10.43;;
28968;SDS011;16076;51.194;6.642;2022-11-14T07:36:19;17.92;;;10.45;;
28968;SDS011;16076;51.194;6.642;2022-11-14T07:38:45;17.02;;;10.02;;
28968;SDS011;16076;51.194;6.642;2022-11-14T07:41:14;19.60;;;10.25;;
28968;SDS011;16076;51.194;6.642;2022-11-14T07:43:41;25.35;;;12.90;;
28968;SDS011;16076;51.194;6.642;2022-11-14T07:46:09;25.90;;;13.45;;
28968;SDS011;16076;51.194;6.642;2022-11-14T07:48:37;26.90;;;13.75;;
28968;SDS011;16076;51.194;6.642;2022-11-14T07:51:06;28.10;;;14.93;;
28968;SDS011;16076;51.194;6.642;2022-11-14T07:53:35;26.60;;;14.02;;
28968;SDS011;16076;51.194;6.642;2022-11-14T07:56:01;29.17;;;14.77;;
28968;SDS011;16076;51.194;6.642;2022-11-14T07:58:31;31.85;;;16.27;;
28968;SDS011;16076;51.194;6.642;2022-11-14T08:01:00;28.80;;;15.88;;
28968;SDS011;16076;51.194;6.642;2022-11-14T08:03:26;32.15;;;16.45;;
28968;SDS011;16076;51.194;6.642;2022-11-14T08:05:58;33.50;;;16.42;;
28968;SDS011;16076;51.194;6.642;2022-11-14T08:08:25;31.40;;;16.33;;
28968;SDS011;16076;51.194;6.642;2022-11-14T08:10:52;35.40;;;17.25;;
28968;SDS011;16076;51.194;6.642;2022-11-14T08:13:20;34.22;;;16.15;;
28968;SDS011;16076;51.194;6.642;2022-11-14T08:15:46;37.13;;;18.10;;
28968;SDS011;16076;51.194;6.642;2022-11-14T08:18:12;32.22;;;16.17;;
28968;SDS011;16076;51.194;6.642;2022-11-14T08:20:37;33.60;;;16.63;;
28968;SDS011;16076;51.194;6.642;2022-11-14T08:23:03;32.38;;;16.45;;
28968;SDS011;16076;51.194;6.642;2022-11-14T08:25:32;36.38;;;17.17;;
28968;SDS011;16076;51.194;6.642;2022-11-14T08:27:58;35.47;;;17.08;;
28968;SDS011;16076;51.194;6.642;2022-11-14T08:30:23;33.65;;;17.42;;
28968;SDS011;16076;51.194;6.642;2022-11-14T08:32:52;30.98;;;15.77;;
28968;SDS011;16076;51.194;6.642;2022-11-14T08:35:18;35.35;;;16.80;;
28968;SDS011;16076;51.194;6.642;2022-11-14T08:37:44;32.30;;;17.10;;
28968;SDS011;16076;51.194;6.642;2022-11-14T08:40:10;34.75;;;16.08;;
28968;SDS011;16076;51.194;6.642;2022-11-14T08:42:36;33.85;;;16.60;;
28968;SDS011;16076;51.194;6.642;2022-11-14T08:45:02;31.33;;;16.45;;
28968;SDS011;16076;51.194;6.642;2022-11-14T08:47:28;34.13;;;15.85;;
28968;SDS011;16076;51.194;6.642;2022-11-14T08:49:54;35.22;;;16.17;;
28968;SDS011;16076;51.194;6.642;2022-11-14T08:52:20;30.58;;;15.38;;
28968;SDS011;16076;51.194;6.642;2022-11-14T08:54:46;33.92;;;15.57;;
28968;SDS011;16076;51.194;6.642;2022-11-14T08:57:14;31.58;;;14.95;;
28968;SDS011;16076;51.194;6.642;2022-11-14T08:59:42;33.03;;;15.05;;
28968;SDS011;16076;51.194;6.642;2022-11-14T09:02:11;30.15;;;16.33;;
28968;SDS011;16076;51.194;6.642;2022-11-14T09:04:40;29.40;;;15.35;;
28968;SDS011;16076;51.194;6.642;2022-11-14T09:07:08;30.80;;;14.80;;
28968;SDS011;16076;51.194;6.642;2022-11-14T09:09:34;32.75;;;16.02;;
28968;SDS011;16076;51.194;6.642;2022-11-14T09:12:03;33.67;;;15.70;;
28968;SDS011;16076;51.194;6.642;2022-11-14T09:14:29;35.63;;;15.95;;
28968;SDS011;16076;51.194;6.642;2022-11-14T09:16:54;33.47;;;17.08;;
28968;SDS011;16076;51.194;6.642;2022-11-14T09:19:20;34.75;;;17.58;;
28968;SDS011;16076;51.194;6.642;2022-11-14T09:21:46;32.95;;;16.17;;
28968;SDS011;16076;51.194;6.642;2022-11-14T09:24:11;33.97;;;17.10;;
28968;SDS011;16076;51.194;6.642;2022-11-14T09:26:37;35.30;;;17.65;;
28968;SDS011;16076;51.194;6.642;2022-11-14T09:29:03;32.33;;;16.52;;
28968;SDS011;16076;51.194;6.642;2022-11-14T09:31:32;32.92;;;18.48;;
28968;SDS011;16076;51.194;6.642;2022-11-14T09:33:58;35.85;;;17.23;;
28968;SDS011;16076;51.194;6.642;2022-11-14T09:36:24;33.03;;;15.43;;
28968;SDS011;16076;51.194;6.642;2022-11-14T09:38:50;30.08;;;14.82;;
28968;SDS011;16076;51.194;6.642;2022-11-14T09:47:10;34.50;;;14.82;;
28968;SDS011;16076;51.194;6.642;2022-11-14T09:49:45;35.53;;;16.15;;
28968;SDS011;16076;51.194;6.642;2022-11-14T09:52:18;33.50;;;15.57;;
28968;SDS011;16076;51.194;6.642;2022-11-14T09:55:08;31.48;;;16.48;;
28968;SDS011;16076;51.194;6.642;2022-11-14T09:57:49;30.77;;;15.65;;
28968;SDS011;16076;51.194;6.642;2022-11-14T10:11:39;33.03;;;15.35;;
28968;SDS011;16076;51.194;6.642;2022-11-14T10:17:03;30.63;;;15.93;;
28968;SDS011;16076;51.194;6.642;2022-11-14T10:20:32;34.97;;;14.82;;
28968;SDS011;16076;51.194;6.642;2022-11-14T10:27:44;29.13;;;13.18;;
28968;SDS011;16076;51.194;6.642;2022-11-14T10:30:16;24.27;;;12.80;;
28968;SDS011;16076;51.194;6.642;2022-11-14T10:33:19;27.10;;;12.90;;
28968;SDS011;16076;51.194;6.642;2022-11-14T10:38:47;27.67;;;12.55;;
28968;SDS011;16076;51.194;6.642;2022-11-14T10:41:32;26.98;;;12.57;;
28968;SDS011;16076;51.194;6.642;2022-11-14T10:43:59;30.25;;;12.77;;
28968;SDS011;16076;51.194;6.642;2022-11-14T10:46:35;27.20;;;13.10;;
28968;SDS011;16076;51.194;6.642;2022-11-14T10:49:18;26.85;;;13.15;;
28968;SDS011;16076;51.194;6.642;2022-11-14T10:51:46;23.13;;;12.43;;
28968;SDS011;16076;51.194;6.642;2022-11-14T10:57:18;25.13;;;13.85;;
28968;SDS011;16076;51.194;6.642;2022-11-14T10:59:45;28.45;;;13.82;;
28968;SDS011;16076;51.194;6.642;2022-11-14T11:02:11;26.38;;;13.65;;
28968;SDS011;16076;51.194;6.642;2022-11-14T11:04:41;31.75;;;14.75;;
28968;SDS011;16076;51.194;6.642;2022-11-14T11:09:38;30.20;;;14.18;;
28968;SDS011;16076;51.194;6.642;2022-11-14T11:12:24;29.88;;;14.85;;
28968;SDS011;16076;51.194;6.642;2022-11-14T11:15:21;27.10;;;13.27;;
28968;SDS011;16076;51.194;6.642;2022-11-14T11:17:56;26.02;;;13.68;;
28968;SDS011;16076;51.194;6.642;2022-11-14T11:25:41;37.47;;;14.43;;
28968;SDS011;16076;51.194;6.642;2022-11-14T11:28:14;24.92;;;13.30;;
28968;SDS011;16076;51.194;6.642;2022-11-14T11:30:58;25.15;;;13.60;;
28968;SDS011;16076;51.194;6.642;2022-11-14T11:33:26;34.50;;;14.98;;
28968;SDS011;16076;51.194;6.642;2022-11-14T11:35:58;32.53;;;14.55;;
28968;SDS011;16076;51.194;6.642;2022-11-14T11:38:45;26.95;;;13.27;;
28968;SDS011;16076;51.194;6.642;2022-11-14T11:41:22;34.05;;;14.80;;
28968;SDS011;16076;51.194;6.642;2022-11-14T11:44:03;27.05;;;13.73;;
28968;SDS011;16076;51.194;6.642;2022-11-14T11:52:09;28.83;;;14.70;;
28968;SDS011;16076;51.194;6.642;2022-11-14T11:57:32;28.63;;;14.07;;
28968;SDS011;16076;51.194;6.642;2022-11-14T12:00:14;26.42;;;13.90;;
28968;SDS011;16076;51.194;6.642;2022-11-14T12:02:49;27.92;;;14.25;;
28968;SDS011;16076;51.194;6.642;2022-11-14T12:05:17;27.25;;;14.88;;
28968;SDS011;16076;51.194;6.642;2022-11-14T12:08:00;27.33;;;13.77;;
28968;SDS011;16076;51.194;6.642;2022-11-14T12:10:31;31.48;;;13.63;;
28968;SDS011;16076;51.194;6.642;2022-11-14T12:22:00;31.33;;;15.10;;
28968;SDS011;16076;51.194;6.642;2022-11-14T12:27:23;28.95;;;13.98;;
28968;SDS011;16076;51.194;6.642;2022-11-14T12:32:38;29.35;;;15.30;;
28968;SDS011;16076;51.194;6.642;2022-11-14T12:35:06;30.20;;;15.70;;
28968;SDS011;16076;51.194;6.642;2022-11-14T12:37:45;35.58;;;15.05;;
28968;SDS011;16076;51.194;6.642;2022-11-14T12:40:26;29.67;;;14.90;;
28968;SDS011;16076;51.194;6.642;2022-11-14T12:42:57;29.92;;;14.43;;
28968;SDS011;16076;51.194;6.642;2022-11-14T12:50:49;28.33;;;14.82;;
28968;SDS011;16076;51.194;6.642;2022-11-14T12:56:08;34.90;;;15.25;;
28968;SDS011;16076;51.194;6.642;2022-11-14T12:58:50;26.63;;;13.45;;
28968;SDS011;16076;51.194;6.642;2022-11-14T13:12:34;30.40;;;14.65;;
28968;SDS011;16076;51.194;6.642;2022-11-14T13:18:27;30.33;;;13.77;;
28968;SDS011;16076;51.194;6.642;2022-11-14T13:21:22;28.95;;;14.63;;
28968;SDS011;16076;51.194;6.642;2022-11-14T13:26:59;33.42;;;15.70;;
28968;SDS011;16076;51.194;6.642;2022-11-14T13:29:47;31.02;;;14.63;;
28968;SDS011;16076;51.194;6.642;2022-11-14T13:46:31;41.17;;;18.15;;
28968;SDS011;16076;51.194;6.642;2022-11-14T13:51:56;32.15;;;15.75;;
28968;SDS011;16076;51.194;6.642;2022-11-14T13:54:22;35.38;;;15.70;;
28968;SDS011;16076;51.194;6.642;2022-11-14T14:00:22;35.30;;;15.85;;
28968;SDS011;16076;51.194;6.642;2022-11-14T14:03:04;31.15;;;16.23;;
28968;SDS011;16076;51.194;6.642;2022-11-14T14:05:58;34.90;;;17.40;;
28968;SDS011;16076;51.194;6.642;2022-11-14T14:17:21;32.92;;;16.08;;
28968;SDS011;16076;51.194;6.642;2022-11-14T14:19:54;34.67;;;16.83;;
28968;SDS011;16076;51.194;6.642;2022-11-14T14:22:46;34.00;;;16.73;;
28968;SDS011;16076;51.194;6.642;2022-11-14T14:25:50;36.85;;;16.15;;
28968;SDS011;16076;51.194;6.642;2022-11-14T14:33:40;32.38;;;15.68;;
28968;SDS011;16076;51.194;6.642;2022-11-14T14:36:41;36.65;;;17.63;;
28968;SDS011;16076;51.194;6.642;2022-11-14T14:39:20;34.15;;;16.38;;
28968;SDS011;16076;51.194;6.642;2022-11-14T14:41:46;35.08;;;17.27;;
28968;SDS011;16076;51.194;6.642;2022-11-14T14:44:16;31.50;;;15.93;;
28968;SDS011;16076;51.194;6.642;2022-11-14T14:46:56;34.42;;;15.95;;
28968;SDS011;16076;51.194;6.642;2022-11-14T14:49:40;36.13;;;17.23;;
28968;SDS011;16076;51.194;6.642;2022-11-14T14:54:56;32.15;;;17.50;;
28968;SDS011;16076;51.194;6.642;2022-11-14T14:57:22;33.80;;;16.40;;
28968;SDS011;16076;51.194;6.642;2022-11-14T15:00:03;31.85;;;16.05;;
28968;SDS011;16076;51.194;6.642;2022-11-14T15:02:31;37.40;;;18.02;;
28968;SDS011;16076;51.194;6.642;2022-11-14T15:04:58;34.30;;;17.77;;
28968;SDS011;16076;51.194;6.642;2022-11-14T15:07:27;37.42;;;16.80;;
28968;SDS011;16076;51.194;6.642;2022-11-14T15:09:55;34.40;;;17.52;;
28968;SDS011;16076;51.194;6.642;2022-11-14T15:12:26;33.55;;;17.40;;
28968;SDS011;16076;51.194;6.642;2022-11-14T15:14:54;30.60;;;17.50;;
28968;SDS011;16076;51.194;6.642;2022-11-14T15:17:21;35.20;;;18.27;;
28968;SDS011;16076;51.194;6.642;2022-11-14T15:19:50;37.65;;;18.00;;
28968;SDS011;16076;51.194;6.642;2022-11-14T15:22:21;32.70;;;16.98;;
28968;SDS011;16076;51.194;6.642;2022-11-14T15:30:41;35.40;;;17.20;;
28968;SDS011;16076;51.194;6.642;2022-11-14T15:33:26;33.33;;;16.92;;
28968;SDS011;16076;51.194;6.642;2022-11-14T15:36:04;38.85;;;18.15;;
28968;SDS011;16076;51.194;6.642;2022-11-14T15:38:35;35.00;;;16.87;;
28968;SDS011;16076;51.194;6.642;2022-11-14T15:41:08;32.72;;;17.38;;
28968;SDS011;16076;51.194;6.642;2022-11-14T15:54:19;34.65;;;17.17;;
28968;SDS011;16076;51.194;6.642;2022-11-14T15:56:50;32.63;;;16.80;;
28968;SDS011;16076;51.194;6.642;2022-11-14T15:59:17;34.72;;;17.60;;
28968;SDS011;16076;51.194;6.642;2022-11-14T16:01:43;33.13;;;17.17;;
28968;SDS011;16076;51.194;6.642;2022-11-14T16:04:15;33.13;;;17.80;;
28968;SDS011;16076;51.194;6.642;2022-11-14T16:06:42;35.42;;;17.25;;
28968;SDS011;16076;51.194;6.642;2022-11-14T16:09:11;32.15;;;16.65;;
28968;SDS011;16076;51.194;6.642;2022-11-14T16:11:42;33.03;;;16.13;;
28968;SDS011;16076;51.194;6.642;2022-11-14T16:14:13;35.67;;;17.03;;
28968;SDS011;16076;51.194;6.642;2022-11-14T16:16:38;35.70;;;17.63;;
28968;SDS011;16076;51.194;6.642;2022-11-14T16:19:04;35.67;;;16.23;;
28968;SDS011;16076;51.194;6.642;2022-11-14T16:21:31;30.75;;;15.68;;
28968;SDS011;16076;51.194;6.642;2022-11-14T16:23:57;30.00;;;15.60;;
28968;SDS011;16076;51.194;6.642;2022-11-14T16:26:23;32.83;;;16.73;;
28968;SDS011;16076;51.194;6.642;2022-11-14T16:28:52;33.78;;;15.55;;
28968;SDS011;16076;51.194;6.642;2022-11-14T16:31:18;33.15;;;16.25;;
28968;SDS011;16076;51.194;6.642;2022-11-14T16:33:44;30.83;;;16.70;;
28968;SDS011;16076;51.194;6.642;2022-11-14T16:36:10;31.30;;;16.95;;
28968;SDS011;16076;51.194;6.642;2022-11-14T16:38:36;31.33;;;15.35;;
28968;SDS011;16076;51.194;6.642;2022-11-14T16:41:06;28.27;;;16.17;;
28968;SDS011;16076;51.194;6.642;2022-11-14T16:43:37;31.17;;;15.68;;
28968;SDS011;16076;51.194;6.642;2022-11-14T16:46:03;28.27;;;15.73;;
28968;SDS011;16076;51.194;6.642;2022-11-14T16:48:29;27.35;;;15.35;;
28968;SDS011;16076;51.194;6.642;2022-11-14T16:50:58;27.02;;;15.23;;
28968;SDS011;16076;51.194;6.642;2022-11-14T16:53:28;24.20;;;14.25;;
28968;SDS011;16076;51.194;6.642;2022-11-14T16:55:54;29.75;;;16.00;;
28968;SDS011;16076;51.194;6.642;2022-11-14T16:58:20;27.90;;;14.60;;
28968;SDS011;16076;51.194;6.642;2022-11-14T17:00:46;33.63;;;16.50;;
28968;SDS011;16076;51.194;6.642;2022-11-14T17:03:12;28.60;;;15.75;;